Map

Track Data

SID SEASON NUMBER BASIN SUBBASIN NAME ISO_TIME NATURE LAT LON WMO_WIND WMO_PRES WMO_AGENCY TRACK_TYPE DIST2LAND LANDFALL IFLAG USA_AGENCY USA_ATCF_ID USA_LAT USA_LON USA_RECORD USA_STATUS USA_WIND USA_PRES USA_SSHS USA_R34_NE USA_R34_SE USA_R34_SW USA_R34_NW USA_R50_NE USA_R50_SE USA_R50_SW USA_R50_NW USA_R64_NE USA_R64_SE USA_R64_SW USA_R64_NW USA_POCI USA_ROCI USA_RMW USA_EYE TOKYO_LAT TOKYO_LON TOKYO_GRADE TOKYO_WIND TOKYO_PRES TOKYO_R50_DIR TOKYO_R50_LONG TOKYO_R50_SHORT TOKYO_R30_DIR TOKYO_R30_LONG TOKYO_R30_SHORT TOKYO_LAND CMA_LAT CMA_LON CMA_CAT CMA_WIND CMA_PRES HKO_LAT HKO_LON HKO_CAT HKO_WIND HKO_PRES NEWDELHI_LAT NEWDELHI_LON NEWDELHI_GRADE NEWDELHI_WIND NEWDELHI_PRES NEWDELHI_CI NEWDELHI_DP NEWDELHI_POCI REUNION_LAT REUNION_LON REUNION_TYPE REUNION_WIND REUNION_PRES REUNION_TNUM REUNION_CI REUNION_RMW REUNION_R34_NE REUNION_R34_SE REUNION_R34_SW REUNION_R34_NW REUNION_R50_NE REUNION_R50_SE REUNION_R50_SW REUNION_R50_NW REUNION_R64_NE REUNION_R64_SE REUNION_R64_SW REUNION_R64_NW BOM_LAT BOM_LON BOM_TYPE BOM_WIND BOM_PRES BOM_TNUM BOM_CI BOM_RMW BOM_R34_NE BOM_R34_SE BOM_R34_SW BOM_R34_NW BOM_R50_NE BOM_R50_SE BOM_R50_SW BOM_R50_NW BOM_R64_NE BOM_R64_SE BOM_R64_SW BOM_R64_NW BOM_ROCI BOM_POCI BOM_EYE BOM_POS_METHOD BOM_PRES_METHOD NADI_LAT NADI_LON NADI_CAT NADI_WIND NADI_PRES WELLINGTON_LAT WELLINGTON_LON WELLINGTON_WIND WELLINGTON_PRES DS824_LAT DS824_LON DS824_STAGE DS824_WIND DS824_PRES TD9636_LAT TD9636_LON TD9636_STAGE TD9636_WIND TD9636_PRES TD9635_LAT TD9635_LON TD9635_WIND TD9635_PRES TD9635_ROCI NEUMANN_LAT NEUMANN_LON NEUMANN_CLASS NEUMANN_WIND NEUMANN_PRES MLC_LAT MLC_LON MLC_CLASS MLC_WIND MLC_PRES USA_GUST BOM_GUST BOM_GUST_PER REUNION_GUST REUNION_GUST_PER USA_SEAHGT USA_SEARAD_NE USA_SEARAD_SE USA_SEARAD_SW USA_SEARAD_NW STORM_SPEED STORM_DIR
1968174N20265 1968 36 NA GM CANDY 1968-06-22 06:00:00 TS 20.0000 -95.0000 25 hurdat_atl main 145 145 O_____________ hurdat_atl AL031968 20.0000 -95.0000 TD 25 -1 5 354
1968174N20265 1968 36 NA GM CANDY 1968-06-22 09:00:00 TS 20.2550 -95.0050 main 152 152 P_____________ AL031968 20.2550 -95.0050 TD 25 -1 5 2
1968174N20265 1968 36 NA GM CANDY 1968-06-22 12:00:00 TS 20.5000 -95.0000 25 hurdat_atl main 160 160 O_____________ hurdat_atl AL031968 20.5000 -95.0000 TD 25 -1 5 0
1968174N20265 1968 36 NA GM CANDY 1968-06-22 15:00:00 TS 20.7350 -94.9851 main 171 171 P_____________ AL031968 20.7350 -94.9851 TD 25 -1 5 2
1968174N20265 1968 36 NA GM CANDY 1968-06-22 18:00:00 TS 21.0000 -95.0000 25 hurdat_atl main 190 190 O_____________ hurdat_atl AL031968 21.0000 -95.0000 TD 25 -1 6 352
1968174N20265 1968 36 NA GM CANDY 1968-06-22 21:00:00 TS 21.2825 -95.0703 main 205 205 P_____________ AL031968 21.2825 -95.0703 TD 27 -1 7 345
1968174N20265 1968 36 NA GM CANDY 1968-06-23 00:00:00 TS 21.7000 -95.2000 30 hurdat_atl main 217 209 O_____________ hurdat_atl AL031968 21.7000 -95.2000 TD 30 -1 11 345
1968174N20265 1968 36 NA GM CANDY 1968-06-23 03:00:00 TS 22.3400 -95.3775 main 210 210 P_____________ AL031968 22.3400 -95.3775 TD 32 -1 15 345
1968174N20265 1968 36 NA GM CANDY 1968-06-23 06:00:00 TS 23.1000 -95.6000 35 hurdat_atl main 224 203 O_____________ hurdat_atl AL031968 23.1000 -95.6000 TS 35 0 15 344
1968174N20265 1968 36 NA GM CANDY 1968-06-23 09:00:00 TS 23.8200 -95.8428 main 203 147 P_____________ AL031968 23.8200 -95.8428 TS 37 0 16 343
1968174N20265 1968 36 NA GM CANDY 1968-06-23 12:00:00 TS 24.6000 -96.1000 40 hurdat_atl main 147 92 O_____________ hurdat_atl AL031968 24.6000 -96.1000 TS 40 0 17 345
1968174N20265 1968 36 NA GM CANDY 1968-06-23 15:00:00 TS 25.4725 -96.3361 main 90 54 P_____________ AL031968 25.4725 -96.3361 TS 45 0 19 346
1968174N20265 1968 36 NA GM CANDY 1968-06-23 18:00:00 TS 26.4000 -96.6000 50 1001 hurdat_atl main 66 45 O_____________ hurdat_atl AL031968 26.4000 -96.6000 TS 50 1001 0 19 343
1968174N20265 1968 36 NA GM CANDY 1968-06-23 21:00:00 TS 27.3190 -96.9537 main 37 14 P_____________ AL031968 27.3190 -96.9537 TS 56 997 0 20 342
1968174N20265 1968 36 NA GM CANDY 1968-06-23 22:30:00 TS 27.8000 -97.1000 60 995 hurdat_atl main 9 0 O_____________ hurdat_atl AL031968 27.8000 -97.1000 L TS 60 995 0 20 347
1968174N20265 1968 36 NA NA CANDY 1968-06-24 00:00:00 TS 28.3000 -97.2000 60 995 hurdat_atl main 0 0 O_____________ hurdat_atl AL031968 28.3000 -97.2000 TS 60 995 0 19 349
1968174N20265 1968 36 NA NA CANDY 1968-06-24 03:00:00 TS 29.1813 -97.4125 main 0 0 P_____________ AL031968 29.1813 -97.4125 TS 50 0 17 348
1968174N20265 1968 36 NA NA CANDY 1968-06-24 06:00:00 TS 30.0000 -97.6000 40 hurdat_atl main 0 0 O_____________ hurdat_atl AL031968 30.0000 -97.6000 TS 40 0 17 349
1968174N20265 1968 36 NA NA CANDY 1968-06-24 09:00:00 TS 30.8848 -97.7956 main 0 0 P_____________ AL031968 30.8848 -97.7956 TS 35 0 18 354
1968174N20265 1968 36 NA NA CANDY 1968-06-24 12:00:00 TS 31.8000 -97.8000 30 hurdat_atl main 0 0 O_____________ hurdat_atl AL031968 31.8000 -97.8000 TD 30 -1 19 9
1968174N20265 1968 36 NA NA CANDY 1968-06-24 15:00:00 TS 32.7349 -97.4701 main 0 0 P_____________ AL031968 32.7349 -97.4701 TD 27 -1 21 22
1968174N20265 1968 36 NA NA CANDY 1968-06-24 18:00:00 TS 33.7000 -96.9000 25 hurdat_atl main 0 0 O_____________ hurdat_atl AL031968 33.7000 -96.9000 TD 25 -1 22 27
1968174N20265 1968 36 NA NA CANDY 1968-06-24 21:00:00 TS 34.6535 -96.3149 main 0 0 P_____________ AL031968 34.6535 -96.3149 TD 25 -1 23 30
1968174N20265 1968 36 NA NA CANDY 1968-06-25 00:00:00 TS 35.7000 -95.5000 25 hurdat_atl main 0 0 O_____________ hurdat_atl AL031968 35.7000 -95.5000 TD 25 -1 28 34
1968174N20265 1968 36 NA NA CANDY 1968-06-25 03:00:00 TS 36.9872 -94.3734 main 0 0 P_____________ AL031968 36.9872 -94.3734 TD 25 -1 32 39
1968174N20265 1968 36 NA NA CANDY 1968-06-25 06:00:00 TS 38.2000 -93.0000 25 hurdat_atl main 0 0 O_____________ hurdat_atl AL031968 38.2000 -93.0000 TD 25 -1 30 47
1968174N20265 1968 36 NA NA CANDY 1968-06-25 09:00:00 TS 39.0387 -91.5470 main 0 0 P_____________ AL031968 39.0387 -91.5470 TD 25 -1 28 57
1968174N20265 1968 36 NA NA CANDY 1968-06-25 12:00:00 TS 39.7000 -90.0000 25 hurdat_atl main 0 0 O_____________ hurdat_atl AL031968 39.7000 -90.0000 TD 25 -1 27 60
1968174N20265 1968 36 NA NA CANDY 1968-06-25 15:00:00 TS 40.4057 -88.4732 main 0 0 P_____________ AL031968 40.4057 -88.4732 TD 25 -1 28 62
1968174N20265 1968 36 NA NA CANDY 1968-06-25 18:00:00 TS 41.0000 -86.8000 25 hurdat_atl main 0 0 O_____________ hurdat_atl AL031968 41.0000 -86.8000 TD 25 -1 29 70
1968174N20265 1968 36 NA NA CANDY 1968-06-25 21:00:00 TS 41.4251 -84.8431 main 0 0 P_____________ AL031968 41.4251 -84.8431 TD 25 -1 31 77
1968174N20265 1968 36 NA NA CANDY 1968-06-26 00:00:00 ET 41.7000 -82.8000 25 hurdat_atl main 0 0 O_____________ hurdat_atl AL031968 41.7000 -82.8000 EX 25 -4 30 80
1968174N20265 1968 36 NA NA CANDY 1968-06-26 03:00:00 ET 41.9536 -80.8277 main 0 0 P_____________ AL031968 41.9536 -80.8277 EX 25 -4 28 84
1968174N20265 1968 36 NA NA CANDY 1968-06-26 06:00:00 ET 42.0000 -79.0000 25 hurdat_atl main 0 0 O_____________ hurdat_atl AL031968 42.0000 -79.0000 EX 25 -4 26 94
1968174N20265 1968 36 NA NA CANDY 1968-06-26 09:00:00 ET 41.7540 -77.3236 main 0 0 P_____________ AL031968 41.7540 -77.3236 EX 25 -4 23 107
1968174N20265 1968 36 NA NA CANDY 1968-06-26 12:00:00 ET 41.3000 -76.0000 25 hurdat_atl main 0 0 O_____________ hurdat_atl AL031968 41.3000 -76.0000 EX 25 -4 19 121
1968174N20265 1968 36 NA NA CANDY 1968-06-26 15:00:00 ET 40.7648 -75.1208 main 0 0 P_____________ AL031968 40.7648 -75.1208 EX 25 -4 16 134
1968174N20265 1968 36 NA NA CANDY 1968-06-26 18:00:00 ET 40.2000 -74.5000 25 hurdat_atl main 0 O_____________ hurdat_atl AL031968 40.2000 -74.5000 EX 25 -4 15 140

About IBTrACS Database

This database is a web-friendly format of International Best Track Archive for Climate Stewardship (IBTrACS), a global best track data archive curated by NOAA dating back to 1842.

Updated: 2022-05-26